Time;durP1;ratioP1;P1;durP2;ratioP2;P2;SDS_P1;SDS_P2;PMS_P1;PMS_P2;Temp;Humidity;BMP_temperature;BMP_pressure;BME280_temperature;BME280_humidity;BME280_pressure;Samples;Min_cycle;Max_cycle;Signal;HPM_P1;HPM_P2
2021/08/28 00:00:50;;;;;;;13.82;11.13;;;487.10;2380.80;;;;;;5032370;28;20036;-79
2021/08/28 00:03:17;;;;;;;;;;;487.10;2380.80;;;;;;5033050;28;20457;-80
2021/08/28 00:05:42;;;;;;;12.18;10.70;;;487.20;2380.80;;;;;;5032058;28;19905;-81
2021/08/28 00:08:08;;;;;;;12.73;11.32;;;487.20;2380.80;;;;;;5032277;28;20022;-82
2021/08/28 00:10:34;;;;;;;15.07;12.27;;;487.20;2380.80;;;;;;5032324;28;20032;-80
2021/08/28 00:13:00;;;;;;;13.32;11.57;;;487.20;2380.80;;;;;;5032094;28;20038;-80
2021/08/28 00:15:26;;;;;;;12.88;11.35;;;487.30;2380.80;;;;;;5034933;28;20502;-80
2021/08/28 00:17:52;;;;;;;13.35;11.38;;;487.30;2380.80;;;;;;5036382;28;20384;-80
2021/08/28 00:20:17;;;;;;;14.57;12.20;;;512.00;2380.80;;;;;;5037264;28;20524;-81
2021/08/28 00:22:43;;;;;;;14.75;11.45;;;512.00;2380.80;;;;;;5036017;28;20027;-80
2021/08/28 00:25:10;;;;;;;13.98;12.48;;;512.00;2380.80;;;;;;5036088;28;20056;-80
2021/08/28 00:27:36;;;;;;;13.55;11.07;;;512.10;2380.80;;;;;;5035849;28;20034;-80
2021/08/28 00:30:03;;;;;;;12.90;10.80;;;512.00;2380.80;;;;;;5035913;28;20049;-81
2021/08/28 00:32:29;;;;;;;12.98;10.43;;;512.10;2380.80;;;;;;5036038;28;20036;-81
2021/08/28 00:34:55;;;;;;;13.27;10.52;;;512.00;2380.80;;;;;;5035687;28;20109;-81
2021/08/28 00:37:20;;;;;;;13.52;10.85;;;487.30;2380.80;;;;;;5035919;28;20528;-82
2021/08/28 00:39:46;;;;;;;12.85;10.25;;;487.20;2380.80;;;;;;5035900;28;20032;-82
2021/08/28 00:42:12;;;;;;;12.32;10.95;;;487.10;2380.80;;;;;;5035626;28;20453;-81
2021/08/28 00:44:40;;;;;;;12.05;10.52;;;487.00;2380.80;;;;;;5035878;28;20385;-82
2021/08/28 00:47:07;;;;;;;12.82;10.95;;;487.10;2380.80;;;;;;5036874;28;20124;-82
2021/08/28 00:49:32;;;;;;;13.02;11.43;;;486.90;2380.80;;;;;;5036978;28;20366;-81
2021/08/28 00:52:02;;;;;;;13.45;11.25;;;486.90;2380.80;;;;;;5035576;28;20030;-80
2021/08/28 00:54:29;;;;;;;14.07;10.40;;;486.90;2380.80;;;;;;5035385;28;20029;-81
2021/08/28 00:56:55;;;;;;;12.57;10.43;;;486.90;2380.80;;;;;;5035509;28;20458;-80
2021/08/28 00:59:21;;;;;;;17.42;12.18;;;486.80;2380.80;;;;;;5035590;28;20087;-81
2021/08/28 01:01:50;;;;;;;15.90;13.02;;;486.50;2380.80;;;;;;5034825;28;20053;-80
2021/08/28 01:04:19;;;;;;;14.90;12.02;;;486.60;2380.80;;;;;;5036341;28;20458;-80
2021/08/28 01:07:01;;;;;;;13.65;11.82;;;486.70;2380.80;;;;;;5035224;28;20037;-81
2021/08/28 01:09:41;;;;;;;13.90;11.07;;;486.70;2380.80;;;;;;5036421;28;20021;-81
2021/08/28 01:12:12;;;;;;;13.48;9.98;;;486.70;2380.80;;;;;;5035349;28;20374;-81
2021/08/28 01:14:44;;;;;;;13.10;11.30;;;486.70;2380.80;;;;;;5035357;28;20026;-82
2021/08/28 01:17:13;;;;;;;14.13;10.52;;;486.70;2380.80;;;;;;5034852;28;20045;-81
2021/08/28 01:20:01;;;;;;;13.82;11.45;;;486.80;2380.80;;;;;;5035169;28;20025;-80
2021/08/28 01:22:27;;;;;;;15.18;11.13;;;486.60;2380.80;;;;;;5036160;28;20028;-81
2021/08/28 01:24:56;;;;;;;14.40;11.40;;;486.80;2380.80;;;;;;5034603;28;20021;-82
2021/08/28 01:27:49;;;;;;;13.90;10.48;;;486.80;2380.80;;;;;;5034786;28;20040;-81
2021/08/28 01:30:16;;;;;;;14.00;11.60;;;486.90;2380.80;;;;;;5034483;28;20050;-81
2021/08/28 01:32:44;;;;;;;15.00;11.35;;;486.70;2380.80;;;;;;5035824;28;20032;-81
2021/08/28 01:35:11;;;;;;;13.93;11.75;;;486.40;2380.80;;;;;;5034720;28;20033;-81
2021/08/28 01:37:40;;;;;;;13.55;11.32;;;461.70;2380.80;;;;;;5034417;28;20488;-80
2021/08/28 01:40:08;;;;;;;12.27;10.18;;;461.50;2380.80;;;;;;5034614;28;20120;-80
2021/08/28 01:42:35;;;;;;;13.38;10.40;;;461.40;2380.80;;;;;;5034637;28;20418;-82
2021/08/28 01:45:02;;;;;;;13.70;10.65;;;461.60;2380.80;;;;;;5034274;28;20030;-80
2021/08/28 01:47:29;;;;;;;17.30;10.75;;;461.70;2380.80;;;;;;5035379;28;20478;-81
2021/08/28 01:49:55;;;;;;;12.18;8.90;;;486.40;2380.80;;;;;;5034589;28;20030;-81
2021/08/28 01:52:22;;;;;;;12.00;9.75;;;486.50;2380.80;;;;;;5034216;28;20136;-82
2021/08/28 01:54:52;;;;;;;13.85;9.98;;;486.50;2380.80;;;;;;5035549;28;20022;-81
2021/08/28 01:57:18;;;;;;;13.07;10.30;;;486.50;2380.80;;;;;;5035275;28;20029;-81
2021/08/28 01:59:44;;;;;;;13.25;9.43;;;486.40;2380.80;;;;;;5034292;28;20025;-81
2021/08/28 02:02:10;;;;;;;12.82;9.63;;;461.20;2380.80;;;;;;5034176;28;20037;-82
2021/08/28 02:04:37;;;;;;;11.88;9.25;;;461.00;2380.80;;;;;;5033890;28;20037;-81
2021/08/28 02:07:18;;;;;;;12.77;9.50;;;461.30;2380.80;;;;;;5034281;28;20061;-81
2021/08/28 02:10:02;;;;;;;14.45;11.27;;;461.50;2380.80;;;;;;5034084;28;20026;-81
2021/08/28 02:12:40;;;;;;;14.38;10.65;;;461.50;2380.80;;;;;;5035120;28;20052;-81
2021/08/28 02:15:12;;;;;;;12.10;10.25;;;461.60;2380.80;;;;;;5034059;28;20033;-81
2021/08/28 02:18:14;;;;;;;12.02;10.00;;;461.70;2380.80;;;;;;5033886;28;20045;-80
2021/08/28 02:20:44;;;;;;;12.23;10.27;;;461.70;2380.80;;;;;;5014752;28;20038;-80
2021/08/28 02:23:14;;;;;;;11.50;9.98;;;461.70;2380.80;;;;;;5033748;28;20030;-80
2021/08/28 02:25:44;;;;;;;12.52;10.05;;;461.70;2380.80;;;;;;5033473;28;20029;-81
2021/08/28 02:28:13;;;;;;;13.60;10.65;;;461.70;2380.80;;;;;;5033405;28;20045;-82
2021/08/28 02:30:39;;;;;;;13.18;10.63;;;461.60;2380.80;;;;;;5033465;28;20030;-81
2021/08/28 02:33:07;;;;;;;14.02;11.20;;;461.50;2380.80;;;;;;5032828;28;20049;-81
2021/08/28 02:35:34;;;;;;;12.70;9.93;;;461.50;2380.80;;;;;;5033230;28;20021;-81
2021/08/28 02:38:01;;;;;;;13.60;11.07;;;461.60;2380.80;;;;;;5032249;28;20582;-82
2021/08/28 02:40:28;;;;;;;14.95;11.90;;;461.50;2380.80;;;;;;5033073;28;20061;-82
2021/08/28 02:42:54;;;;;;;15.18;12.32;;;461.40;2380.80;;;;;;5033565;28;20036;-81
2021/08/28 02:45:26;;;;;;;14.32;11.57;;;461.30;2380.80;;;;;;5033361;28;20485;-81
2021/08/28 02:47:53;;;;;;;15.05;10.50;;;461.30;2380.80;;;;;;5032978;28;20484;-82
2021/08/28 02:50:23;;;;;;;11.27;10.05;;;461.00;2380.80;;;;;;5032942;28;20465;-82
2021/08/28 02:52:50;;;;;;;11.48;9.88;;;436.00;2355.20;;;;;;5032793;28;20025;-81
2021/08/28 02:55:18;;;;;;;13.93;10.90;;;436.00;2355.20;;;;;;5033385;28;20021;-80
2021/08/28 02:57:48;;;;;;;21.02;10.23;;;436.00;2355.20;;;;;;5033322;28;20029;-81
2021/08/28 03:00:16;;;;;;;14.23;9.90;;;460.80;2380.80;;;;;;5032955;28;20499;-81
2021/08/28 03:02:43;;;;;;;14.40;10.40;;;460.90;2380.80;;;;;;5032822;28;20495;-81
2021/08/28 03:05:14;;;;;;;12.48;10.45;;;461.00;2380.80;;;;;;5033797;28;20034;-81
2021/08/28 03:07:41;;;;;;;12.95;10.38;;;461.10;2380.80;;;;;;5033659;28;20029;-81
2021/08/28 03:10:09;;;;;;;13.38;10.82;;;461.10;2380.80;;;;;;5032669;28;20036;-82
2021/08/28 03:12:36;;;;;;;14.32;9.85;;;461.10;2380.80;;;;;;5033146;28;20029;-82
2021/08/28 03:15:03;;;;;;;13.07;10.15;;;461.10;2380.80;;;;;;5032619;28;20465;-81
2021/08/28 03:17:30;;;;;;;14.55;10.68;;;461.10;2380.80;;;;;;5034122;28;20029;-81
2021/08/28 03:19:58;;;;;;;15.93;10.13;;;461.10;2380.80;;;;;;5034319;28;20021;-82
2021/08/28 03:22:25;;;;;;;14.18;11.02;;;461.10;2380.80;;;;;;5032599;28;20025;-81
2021/08/28 03:24:54;;;;;;;14.65;10.85;;;461.00;2380.80;;;;;;5034111;28;20025;-81
2021/08/28 03:27:21;;;;;;;16.50;11.13;;;460.90;2380.80;;;;;;5032633;28;20469;-82
2021/08/28 03:29:48;;;;;;;14.07;11.88;;;436.10;2355.20;;;;;;5032028;28;20045;-83
2021/08/28 03:32:16;;;;;;;15.00;12.00;;;435.60;2355.20;;;;;;5033954;28;20032;-82
2021/08/28 03:34:42;;;;;;;16.30;13.20;;;435.70;2355.20;;;;;;5032701;28;20031;-82
2021/08/28 03:37:09;;;;;;;15.88;12.27;;;435.70;2355.20;;;;;;5032387;28;20119;-82
2021/08/28 03:39:38;;;;;;;14.95;12.98;;;435.60;2355.20;;;;;;5032525;28;20057;-82
2021/08/28 03:42:03;;;;;;;18.23;13.02;;;435.20;2355.20;;;;;;5032349;28;20033;-85
2021/08/28 03:44:29;;;;;;;17.27;13.40;;;410.40;2355.20;;;;;;5033979;28;20051;-85
2021/08/28 03:46:55;;;;;;;15.57;11.85;;;410.40;2355.20;;;;;;5032502;28;20393;-86
2021/08/28 03:49:21;;;;;;;15.43;11.73;;;435.50;2355.20;;;;;;5036257;28;20026;-82
2021/08/28 03:51:47;;;;;;;21.50;12.18;;;435.70;2355.20;;;;;;5039202;28;20017;-82
2021/08/28 03:54:13;;;;;;;16.63;12.60;;;435.70;2355.20;;;;;;5039116;28;20521;-82
2021/08/28 03:56:39;;;;;;;13.77;11.75;;;435.90;2355.20;;;;;;5040061;28;20029;-82
2021/08/28 03:59:04;;;;;;;16.65;12.40;;;435.70;2355.20;;;;;;5039135;28;20389;-81
2021/08/28 04:01:30;;;;;;;14.68;12.38;;;435.70;2355.20;;;;;;5039041;28;20040;-82
2021/08/28 04:03:56;;;;;;;15.77;12.95;;;435.40;2355.20;;;;;;5038664;28;20447;-82
2021/08/28 04:06:22;;;;;;;16.00;12.35;;;435.40;2355.20;;;;;;5038887;28;20037;-82
2021/08/28 04:08:48;;;;;;;14.30;11.10;;;435.50;2355.20;;;;;;5040239;28;20021;-83
2021/08/28 04:11:15;;;;;;;15.60;12.45;;;435.80;2355.20;;;;;;5038697;28;20375;-81
2021/08/28 04:13:41;;;;;;;17.00;12.85;;;435.90;2355.20;;;;;;5039920;28;20022;-82
2021/08/28 04:16:07;;;;;;;17.80;13.90;;;435.90;2355.20;;;;;;5038832;28;20354;-81
2021/08/28 04:18:33;;;;;;;15.13;12.65;;;435.40;2355.20;;;;;;5038598;28;20022;-81
2021/08/28 04:20:59;;;;;;;15.23;12.00;;;435.60;2355.20;;;;;;5038887;28;20136;-81
2021/08/28 04:23:24;;;;;;;17.00;12.38;;;435.60;2355.20;;;;;;5040009;28;20396;-81
2021/08/28 04:25:50;;;;;;;14.15;11.38;;;435.90;2355.20;;;;;;5038617;28;20080;-83
2021/08/28 04:28:16;;;;;;;14.32;12.00;;;435.90;2355.20;;;;;;5038354;28;20049;-83
2021/08/28 04:30:42;;;;;;;16.02;13.73;;;435.80;2355.20;;;;;;5038714;28;20025;-81
2021/08/28 04:33:07;;;;;;;18.25;13.05;;;435.50;2355.20;;;;;;5038404;28;20072;-83
2021/08/28 04:35:34;;;;;;;17.38;14.07;;;435.60;2355.20;;;;;;5038575;28;20381;-82
2021/08/28 04:38:00;;;;;;;16.67;14.45;;;435.50;2355.20;;;;;;5038572;28;20125;-82
2021/08/28 04:40:26;;;;;;;20.15;15.35;;;435.20;2355.20;;;;;;5038611;28;20500;-82
2021/08/28 04:42:52;;;;;;;15.88;13.18;;;410.50;2355.20;;;;;;5038718;28;20044;-82
2021/08/28 04:45:19;;;;;;;17.65;14.07;;;435.20;2355.20;;;;;;5038407;28;20034;-82
2021/08/28 04:47:45;;;;;;;19.38;14.63;;;410.50;2355.20;;;;;;5038475;28;20080;-82
2021/08/28 04:50:11;;;;;;;19.52;14.27;;;410.50;2355.20;;;;;;5038608;28;20060;-83
2021/08/28 04:52:37;;;;;;;21.15;16.60;;;435.20;2355.20;;;;;;5038398;28;20056;-81
2021/08/28 04:55:04;;;;;;;15.48;13.68;;;410.50;2355.20;;;;;;5040097;28;20068;-81
2021/08/28 04:57:30;;;;;;;19.77;15.93;;;435.70;2355.20;;;;;;5039492;28;20387;-81
2021/08/28 04:59:55;;;;;;;20.83;15.98;;;435.60;2355.20;;;;;;5036534;28;20022;-81
2021/08/28 05:02:22;;;;;;;18.55;15.15;;;435.80;2355.20;;;;;;5035355;28;20048;-82
2021/08/28 05:04:48;;;;;;;19.13;15.68;;;435.60;2355.20;;;;;;5035439;28;20530;-81
2021/08/28 05:07:14;;;;;;;18.20;16.10;;;435.90;2355.20;;;;;;5035029;28;20029;-81
2021/08/28 05:09:40;;;;;;;18.35;16.08;;;436.10;2355.20;;;;;;5035258;28;20025;-82
2021/08/28 05:12:06;;;;;;;25.55;17.73;;;460.80;2380.80;;;;;;5035210;28;20053;-82
2021/08/28 05:14:37;;;;;;;19.88;16.67;;;436.10;2355.20;;;;;;5034953;28;20084;-82
2021/08/28 05:17:04;;;;;;;19.60;15.65;;;460.80;2380.80;;;;;;5035091;28;20057;-81
2021/08/28 05:19:30;;;;;;;20.27;15.43;;;460.80;2380.80;;;;;;5035088;28;20366;-83
2021/08/28 05:21:55;;;;;;;19.95;16.10;;;460.80;2380.80;;;;;;5034936;28;20063;-82
2021/08/28 05:24:22;;;;;;;20.48;16.30;;;461.00;2380.80;;;;;;5036233;28;20029;-82
2021/08/28 05:26:47;;;;;;;18.25;15.20;;;461.00;2380.80;;;;;;5034962;28;20032;-82
2021/08/28 05:29:13;;;;;;;21.70;16.73;;;461.10;2380.80;;;;;;5035423;28;20050;-82
2021/08/28 05:31:39;;;;;;;22.05;15.77;;;461.00;2380.80;;;;;;5034907;28;20091;-81
2021/08/28 05:34:05;;;;;;;16.88;14.88;;;461.10;2380.80;;;;;;5035825;28;20052;-82
2021/08/28 05:36:30;;;;;;;17.90;15.35;;;461.20;2380.80;;;;;;5034863;28;20037;-81
2021/08/28 05:38:56;;;;;;;20.90;17.00;;;461.10;2380.80;;;;;;5034633;28;20036;-81
2021/08/28 05:41:23;;;;;;;21.67;15.85;;;461.30;2380.80;;;;;;5034422;28;20030;-81
2021/08/28 05:43:49;;;;;;;22.70;17.23;;;461.10;2380.80;;;;;;5034636;28;20429;-82
2021/08/28 05:46:14;;;;;;;23.20;17.77;;;461.10;2380.80;;;;;;5034395;28;20564;-82
2021/08/28 05:48:40;;;;;;;20.20;16.60;;;461.30;2380.80;;;;;;5034248;28;20061;-82
2021/08/28 05:51:06;;;;;;;19.00;15.23;;;461.20;2380.80;;;;;;5034533;28;20025;-80
2021/08/28 05:53:32;;;;;;;18.63;15.02;;;461.20;2380.80;;;;;;5034426;28;20032;-80
2021/08/28 05:55:58;;;;;;;22.67;16.00;;;461.40;2380.80;;;;;;5035420;28;20029;-82
2021/08/28 05:58:23;;;;;;;25.77;16.75;;;461.60;2380.80;;;;;;5035502;28;20028;-81
2021/08/28 06:00:49;;;;;;;18.20;14.32;;;461.70;2380.80;;;;;;5034211;28;20026;-80
2021/08/28 06:03:17;;;;;;;17.55;13.05;;;461.70;2380.80;;;;;;5034047;28;20029;-80
2021/08/28 06:05:43;;;;;;;18.23;14.20;;;461.70;2380.80;;;;;;5034247;28;20053;-81
2021/08/28 06:08:11;;;;;;;17.20;13.73;;;486.40;2380.80;;;;;;5035291;28;20453;-81
2021/08/28 06:10:37;;;;;;;18.70;14.45;;;461.70;2380.80;;;;;;5035180;28;20017;-82
2021/08/28 06:13:02;;;;;;;23.65;16.23;;;461.50;2380.80;;;;;;5034617;28;20034;-81
2021/08/28 06:15:28;;;;;;;22.05;17.70;;;461.70;2380.80;;;;;;5034051;28;20033;-81
2021/08/28 06:17:54;;;;;;;20.08;17.23;;;486.40;2380.80;;;;;;5034353;28;20469;-81
2021/08/28 06:20:20;;;;;;;19.88;14.77;;;461.70;2380.80;;;;;;5033374;28;20044;-82
2021/08/28 06:22:46;;;;;;;19.25;14.75;;;486.50;2380.80;;;;;;5033322;28;20022;-81
2021/08/28 06:25:12;;;;;;;16.95;13.95;;;486.60;2380.80;;;;;;5033106;28;20026;-81
2021/08/28 06:27:38;;;;;;;15.55;13.25;;;486.40;2380.80;;;;;;5033120;28;20041;-81
2021/08/28 06:30:04;;;;;;;16.10;13.48;;;486.50;2380.80;;;;;;5033212;28;20045;-81
2021/08/28 06:32:30;;;;;;;21.38;15.50;;;486.80;2380.80;;;;;;5033418;28;20037;-82
2021/08/28 06:34:56;;;;;;;22.35;14.93;;;486.80;2380.80;;;;;;5032812;28;20025;-81
2021/08/28 06:37:22;;;;;;;17.65;13.60;;;486.80;2380.80;;;;;;5032709;28;20067;-80
2021/08/28 06:39:48;;;;;;;19.27;14.25;;;486.50;2380.80;;;;;;5033066;28;20039;-82
2021/08/28 06:42:13;;;;;;;18.58;13.25;;;486.80;2380.80;;;;;;5033526;28;20037;-81
2021/08/28 06:44:40;;;;;;;18.77;15.07;;;486.80;2380.80;;;;;;5033191;28;20025;-81
2021/08/28 06:47:06;;;;;;;17.35;13.93;;;486.90;2380.80;;;;;;5032987;28;20041;-81
2021/08/28 06:49:32;;;;;;;17.08;13.82;;;487.00;2380.80;;;;;;5034162;28;20029;-82
2021/08/28 06:51:58;;;;;;;22.23;14.30;;;487.10;2380.80;;;;;;5032665;28;20025;-81
2021/08/28 06:54:24;;;;;;;16.60;13.68;;;487.10;2380.80;;;;;;5033877;28;20025;-82
2021/08/28 06:56:49;;;;;;;17.55;13.63;;;487.10;2380.80;;;;;;5034619;28;20484;-81
2021/08/28 06:59:16;;;;;;;18.38;14.35;;;;;;;;;;5033115;28;20030;-82
2021/08/28 07:01:42;;;;;;;19.10;14.48;;;512.30;2380.80;;;;;;5033085;28;20033;-80
2021/08/28 07:04:07;;;;;;;19.02;14.15;;;512.10;2380.80;;;;;;5033058;28;20478;-81
2021/08/28 07:06:33;;;;;;;21.13;14.70;;;512.00;2380.80;;;;;;5032773;28;20119;-80
2021/08/28 07:08:59;;;;;;;17.85;13.15;;;512.20;2380.80;;;;;;5033049;28;20028;-80
2021/08/28 07:11:25;;;;;;;16.25;13.35;;;512.30;2380.80;;;;;;5032988;28;20583;-79
2021/08/28 07:13:51;;;;;;;17.13;14.00;;;512.20;2380.80;;;;;;5032825;28;20029;-80
2021/08/28 07:16:16;;;;;;;16.02;13.20;;;512.40;2380.80;;;;;;5033025;28;20487;-80
2021/08/28 07:18:42;;;;;;;15.52;13.30;;;512.70;2380.80;;;;;;5032891;28;20079;-81
2021/08/28 07:21:09;;;;;;;16.10;13.30;;;512.60;2380.80;;;;;;5032721;28;20065;-81
2021/08/28 07:23:35;;;;;;;20.70;13.05;;;512.70;2380.80;;;;;;5032668;28;20416;-82
2021/08/28 07:26:01;;;;;;;18.75;13.63;;;537.70;2406.40;;;;;;5032465;28;20056;-80
2021/08/28 07:28:27;;;;;;;14.88;11.45;;;537.60;2406.40;;;;;;5033864;28;20049;-81
2021/08/28 07:30:53;;;;;;;16.27;11.95;;;538.00;2406.40;;;;;;5032730;28;20553;-80
2021/08/28 07:33:19;;;;;;;14.13;12.15;;;538.20;2406.40;;;;;;5032581;28;20029;-80
2021/08/28 07:35:45;;;;;;;19.02;13.57;;;538.00;2406.40;;;;;;5032721;28;20068;-80
2021/08/28 07:38:11;;;;;;;18.50;14.25;;;538.00;2406.40;;;;;;5032809;28;20029;-82
2021/08/28 07:40:37;;;;;;;24.20;14.10;;;538.20;2406.40;;;;;;5032969;28;20112;-81
2021/08/28 07:43:03;;;;;;;17.83;12.50;;;538.20;2406.40;;;;;;5034110;28;20034;-82
2021/08/28 07:45:29;;;;;;;17.77;12.75;;;538.40;2406.40;;;;;;5034210;28;20458;-82
2021/08/28 07:47:55;;;;;;;14.20;11.98;;;563.20;2432.00;;;;;;5032460;28;20474;-81
2021/08/28 07:50:21;;;;;;;15.95;11.60;;;538.40;2406.40;;;;;;5032603;28;20025;-81
2021/08/28 07:52:47;;;;;;;17.65;13.25;;;538.20;2406.40;;;;;;5032543;28;20112;-80
2021/08/28 07:55:13;;;;;;;20.17;13.23;;;538.00;2406.40;;;;;;5032349;28;20025;-80
2021/08/28 07:57:40;;;;;;;16.23;12.48;;;538.20;2406.40;;;;;;5032473;28;20034;-81
2021/08/28 08:00:08;;;;;;;15.57;11.52;;;563.40;2432.00;;;;;;5032451;28;20021;-80
2021/08/28 08:02:35;;;;;;;15.15;11.27;;;563.40;2432.00;;;;;;5032025;28;20083;-80
2021/08/28 08:05:02;;;;;;;14.45;10.23;;;563.50;2432.00;;;;;;5032331;28;20123;-81
2021/08/28 08:07:28;;;;;;;15.70;9.90;;;563.50;2432.00;;;;;;5032378;28;20037;-79
2021/08/28 08:09:54;;;;;;;16.13;11.90;;;563.40;2432.00;;;;;;5032034;28;20358;-79
2021/08/28 08:12:21;;;;;;;17.67;11.73;;;563.20;2432.00;;;;;;5032268;28;20033;-79
2021/08/28 08:14:47;;;;;;;13.20;11.45;;;563.30;2432.00;;;;;;5032478;28;20025;-78
2021/08/28 08:17:13;;;;;;;13.00;10.43;;;538.50;2406.40;;;;;;5032369;28;20439;-80
2021/08/28 08:19:39;;;;;;;14.77;10.48;;;538.50;2406.40;;;;;;5032226;28;20029;-79
2021/08/28 08:22:04;;;;;;;14.10;9.80;;;538.50;2406.40;;;;;;5033242;28;20472;-81
2021/08/28 08:24:30;;;;;;;14.45;10.10;;;563.20;2432.00;;;;;;5031718;28;20021;-80
2021/08/28 08:26:56;;;;;;;12.77;10.40;;;538.30;2406.40;;;;;;5031870;28;20107;-80
2021/08/28 08:29:22;;;;;;;18.50;11.32;;;538.30;2406.40;;;;;;5030951;28;20073;-79
2021/08/28 08:31:53;;;;;;;11.95;9.05;;;538.50;2406.40;;;;;;5031704;28;20028;-81
2021/08/28 08:34:19;;;;;;;12.57;9.50;;;538.40;2406.40;;;;;;5031523;28;20432;-82
2021/08/28 08:36:44;;;;;;;13.60;9.93;;;563.30;2432.00;;;;;;5034108;28;20021;-81
2021/08/28 08:39:10;;;;;;;10.40;8.98;;;563.60;2432.00;;;;;;5035290;28;20026;-79
2021/08/28 08:41:36;;;;;;;10.85;8.20;;;563.60;2432.00;;;;;;5035240;28;20053;-80
2021/08/28 08:44:03;;;;;;;10.88;8.85;;;563.90;2432.00;;;;;;5035193;28;20029;-79
2021/08/28 08:46:30;;;;;;;10.98;8.70;;;563.90;2432.00;;;;;;5034487;28;20116;-82
2021/08/28 08:48:58;;;;;;;15.48;9.85;;;588.80;2432.00;;;;;;5037001;28;20030;-80
2021/08/28 08:51:24;;;;;;;10.32;9.23;;;588.80;2432.00;;;;;;5036943;28;20021;-84
2021/08/28 08:53:50;;;;;;;14.48;9.05;;;588.80;2432.00;;;;;;5035307;28;20523;-83
2021/08/28 08:56:18;;;;;;;13.15;9.80;;;564.10;2432.00;;;;;;5035824;28;20030;-83
2021/08/28 08:58:44;;;;;;;13.40;9.60;;;564.00;2432.00;;;;;;5035511;28;20025;-83
2021/08/28 09:01:10;;;;;;;22.40;11.93;;;564.10;2432.00;;;;;;5035760;28;20064;-81
2021/08/28 09:03:36;;;;;;;14.65;9.57;;;588.80;2432.00;;;;;;5036757;28;20373;-82
2021/08/28 09:06:03;;;;;;;9.68;8.68;;;589.10;2432.00;;;;;;5035460;28;20033;-82
2021/08/28 09:08:29;;;;;;;11.57;8.65;;;588.90;2432.00;;;;;;5036913;28;20499;-82
2021/08/28 09:10:55;;;;;;;11.48;8.98;;;588.80;2432.00;;;;;;5035660;28;20061;-84
2021/08/28 09:13:23;;;;;;;10.18;8.25;;;588.80;2432.00;;;;;;5036599;28;20071;-82
2021/08/28 09:15:55;;;;;;;11.23;8.38;;;588.80;2432.00;;;;;;5035234;28;20022;-83
2021/08/28 09:18:22;;;;;;;10.88;8.98;;;588.80;2432.00;;;;;;5035551;28;20034;-83
2021/08/28 09:20:49;;;;;;;11.50;9.35;;;564.10;2432.00;;;;;;5035496;28;20037;-80
2021/08/28 09:23:17;;;;;;;13.13;9.50;;;563.90;2432.00;;;;;;5035169;28;20056;-84
2021/08/28 09:25:45;;;;;;;11.05;8.77;;;563.90;2432.00;;;;;;5036814;28;20064;-83
2021/08/28 09:28:11;;;;;;;13.13;9.38;;;564.00;2432.00;;;;;;5034552;28;20462;-82
2021/08/28 09:30:44;;;;;;;12.32;9.25;;;564.00;2432.00;;;;;;5034979;28;20034;-82
2021/08/28 09:33:15;;;;;;;11.30;9.07;;;564.10;2432.00;;;;;;5035118;28;20026;-81
2021/08/28 09:35:46;;;;;;;10.23;8.40;;;564.10;2432.00;;;;;;5034752;28;20026;-83
2021/08/28 09:38:14;;;;;;;11.13;8.57;;;588.80;2432.00;;;;;;5034823;28;20436;-81
2021/08/28 09:40:43;;;;;;;19.27;9.30;;;588.90;2432.00;;;;;;5034841;28;20032;-81
2021/08/28 09:43:19;;;;;;;14.82;9.77;;;588.80;2432.00;;;;;;5033711;28;20036;-81
2021/08/28 09:45:46;;;;;;;13.77;9.10;;;588.90;2432.00;;;;;;5033960;28;20029;-81
2021/08/28 09:48:14;;;;;;;12.57;8.77;;;589.30;2432.00;;;;;;5035096;28;20025;-81
2021/08/28 09:50:42;;;;;;;11.20;9.38;;;589.60;2432.00;;;;;;5035445;28;20064;-81
2021/08/28 09:53:10;;;;;;;9.77;8.15;;;614.50;2432.00;;;;;;5034473;28;20036;-81
2021/08/28 09:55:38;;;;;;;11.60;9.38;;;614.60;2432.00;;;;;;5035816;28;20453;-81
2021/08/28 09:58:07;;;;;;;11.18;8.75;;;614.60;2432.00;;;;;;5034029;28;20453;-80
2021/08/28 10:00:35;;;;;;;10.80;8.60;;;614.80;2432.00;;;;;;5035278;28;20100;-81
2021/08/28 10:03:05;;;;;;;10.90;8.88;;;614.90;2432.00;;;;;;5034297;28;20400;-81
2021/08/28 10:05:33;;;;;;;11.52;7.93;;;614.60;2432.00;;;;;;5035467;28;20029;-81
2021/08/28 10:08:01;;;;;;;11.70;8.07;;;614.50;2432.00;;;;;;5034162;28;20112;-80
2021/08/28 10:10:30;;;;;;;11.20;9.35;;;589.60;2432.00;;;;;;5034130;28;20036;-81
2021/08/28 10:12:57;;;;;;;12.98;8.55;;;589.60;2432.00;;;;;;5034026;28;20576;-80
2021/08/28 10:15:24;;;;;;;12.07;9.38;;;589.70;2432.00;;;;;;5035346;28;20132;-81
2021/08/28 10:17:50;;;;;;;10.80;8.43;;;589.60;2432.00;;;;;;5033692;28;20136;-82
2021/08/28 10:20:20;;;;;;;12.10;8.80;;;589.60;2432.00;;;;;;5033897;28;20036;-81
2021/08/28 10:22:49;;;;;;;10.07;8.35;;;589.30;2432.00;;;;;;5033588;28;20116;-80
2021/08/28 10:25:19;;;;;;;8.80;7.70;;;589.30;2432.00;;;;;;5033605;28;20125;-79
2021/08/28 10:27:46;;;;;;;11.20;8.85;;;589.30;2432.00;;;;;;5034857;28;20036;-78
2021/08/28 10:30:12;;;;;;;10.07;8.18;;;589.60;2432.00;;;;;;5034523;28;20049;-78
2021/08/28 10:32:40;;;;;;;9.32;8.18;;;589.70;2432.00;;;;;;5033153;28;20021;-78
2021/08/28 10:35:07;;;;;;;10.70;8.80;;;614.40;2432.00;;;;;;5033452;28;20464;-79
2021/08/28 10:37:33;;;;;;;10.68;9.43;;;614.50;2432.00;;;;;;5033050;28;20033;-79
2021/08/28 10:40:00;;;;;;;11.48;8.52;;;614.50;2432.00;;;;;;5033072;28;20029;-79
2021/08/28 10:42:30;;;;;;;11.18;9.05;;;589.60;2432.00;;;;;;5033120;28;20087;-78
2021/08/28 10:45:00;;;;;;;11.80;9.40;;;589.60;2432.00;;;;;;5032984;28;20075;-78
2021/08/28 10:47:34;;;;;;;11.40;8.95;;;589.60;2432.00;;;;;;5032716;28;20045;-78
2021/08/28 10:50:08;;;;;;;10.02;8.70;;;589.60;2432.00;;;;;;5033259;28;20021;-77
2021/08/28 10:52:37;;;;;;;12.15;9.07;;;614.80;2432.00;;;;;;5034527;28;20124;-79
2021/08/28 10:55:12;;;;;;;11.48;9.10;;;614.70;2432.00;;;;;;5034383;28;20524;-81
2021/08/28 10:57:39;;;;;;;10.15;8.93;;;615.20;2432.00;;;;;;5032906;28;20029;-80
2021/08/28 11:00:09;;;;;;;10.82;8.90;;;640.30;2432.00;;;;;;5032464;28;20770;-80
2021/08/28 11:02:51;;;;;;;10.70;9.60;;;615.10;2432.00;;;;;;5032991;28;20038;-79
2021/08/28 11:05:27;;;;;;;13.35;9.80;;;640.50;2432.00;;;;;;5033015;28;20029;-77
2021/08/28 11:08:15;;;;;;;9.82;8.52;;;665.70;2432.00;;;;;;5032717;28;20436;-80
2021/08/28 11:10:41;;;;;;;9.80;8.32;;;666.20;2432.00;;;;;;5033071;28;20124;-80
2021/08/28 11:13:07;;;;;;;14.35;8.45;;;691.30;2432.00;;;;;;5033216;28;20033;-80
2021/08/28 11:15:33;;;;;;;10.43;7.72;;;691.70;2432.00;;;;;;5032307;28;20029;-81
2021/08/28 11:18:06;;;;;;;12.55;8.82;;;691.60;2432.00;;;;;;5030705;28;20029;-77
2021/08/28 11:20:40;;;;;;;9.48;8.02;;;691.70;2432.00;;;;;;5031486;28;20049;-78
2021/08/28 11:23:18;;;;;;;13.10;8.20;;;691.70;2432.00;;;;;;5031755;28;20465;-79
2021/08/28 11:25:48;;;;;;;14.50;9.40;;;691.80;2432.00;;;;;;5032023;28;20033;-78
2021/08/28 11:28:15;;;;;;;10.52;8.15;;;691.90;2406.40;;;;;;5060954;28;20057;-79
2021/08/28 11:30:44;;;;;;;11.20;8.18;;;691.80;2380.80;;;;;;5030891;28;20040;-78
2021/08/28 11:33:11;;;;;;;11.63;8.75;;;717.00;2380.80;;;;;;5030598;28;20406;-78
2021/08/28 11:35:41;;;;;;;10.75;8.23;;;717.20;2355.20;;;;;;5031072;28;20029;-77
2021/08/28 11:38:09;;;;;;;12.02;8.57;;;717.20;2278.40;;;;;;5031903;28;20040;-79
2021/08/28 11:40:36;;;;;;;11.82;8.93;;;717.40;2304.00;;;;;;5030808;28;20022;-78
2021/08/28 11:43:07;;;;;;;14.25;9.02;;;742.40;2278.40;;;;;;5032567;28;20021;-78
2021/08/28 11:45:40;;;;;;;10.48;8.65;;;717.70;2201.60;;;;;;5031538;28;20030;-78
2021/08/28 11:48:08;;;;;;;10.35;9.25;;;742.40;2201.60;;;;;;5030610;28;20029;-79
2021/08/28 11:50:35;;;;;;;9.88;8.00;;;742.60;2201.60;;;;;;5031038;28;20067;-78
2021/08/28 11:53:01;;;;;;;13.32;8.77;;;742.90;2176.00;;;;;;5031243;28;20569;-78
2021/08/28 11:55:27;;;;;;;13.10;9.07;;;742.80;2201.60;;;;;;5030576;28;20025;-79
2021/08/28 11:58:01;;;;;;;9.95;8.00;;;743.00;2201.60;;;;;;5030822;28;20091;-79
2021/08/28 12:00:31;;;;;;;10.82;7.65;;;743.00;2150.40;;;;;;5031355;28;20037;-79
2021/08/28 12:02:58;;;;;;;11.43;8.63;;;742.80;2124.80;;;;;;5030319;28;20025;-79
2021/08/28 12:05:25;;;;;;;10.77;8.80;;;743.10;2124.80;;;;;;5011393;28;20489;-79